Observation data for Fluvanna on 12/09/2018      Previous  Date  Next       Current Mesonet Observations  Soil Data  Daily Summary Page  Observations in Plain Language
KFVS 090600Z 33005KT M01/M02 A303 RMK A01 T10141023  RH  095%=      5-min Rain = 0
KFVS 090605Z 33004KT M01/M02 A303 RMK A01 T10131021  RH  095%=      5-min Rain = 0
KFVS 090610Z 33003KT M01/M02 A303 RMK A01 T10141021  RH  095%=      5-min Rain = 0
KFVS 090615Z 33004KT M01/M02 A303 RMK A01 T10131021  RH  095%=      5-min Rain = 0
KFVS 090620Z 32004KT M01/M02 A303 RMK A01 T10121019  RH  096%=      5-min Rain = 0
KFVS 090625Z 31005KT M01/M02 A303 RMK A01 T10101018  RH  095%=      5-min Rain = 0
KFVS 090630Z 31005KT M01/M02 A303 RMK A01 T10101018  RH  095%=      5-min Rain = 0
KFVS 090635Z 31006KT M01/M02 A303 RMK A01 T10101018  RH  095%=      5-min Rain = 0
KFVS 090640Z 31007KT M01/M02 A303 RMK A01 T10101018  RH  095%=      5-min Rain = 0
KFVS 090645Z 31006KT M01/M02 A3029 RMK A01 T10101019  RH  094%=      5-min Rain = 0
KFVS 090650Z 31006KT M01/M02 A3029 RMK A01 T10101019  RH  095%=      5-min Rain = 0
KFVS 090655Z 31005KT M01/M02 A303 RMK A01 T10101019  RH  095%=      5-min Rain = 0
KFVS 090700Z 32004KT M01/M02 A3029 RMK A01 T10091019  RH  094%=      5-min Rain = 0
KFVS 090705Z 33002KT M01/M02 A3029 RMK A01 T10111021  RH  094%=      5-min Rain = 0
KFVS 090710Z 00002KT M01/M02 A3029 RMK A01 T10101019  RH  094%=      5-min Rain = 0
KFVS 090715Z 33001KT M01/M02 A3029 RMK A01 T10101020  RH  094%=      5-min Rain = 0
KFVS 090720Z 33003KT M01/M02 A3029 RMK A01 T10101020  RH  094%=      5-min Rain = 0
KFVS 090725Z 33007KT M01/M02 A3029 RMK A01 T10091019  RH  094%=      5-min Rain = 0
KFVS 090730Z 33008KT M01/M02 A3029 RMK A01 T10091020  RH  093%=      5-min Rain = 0
KFVS 090735Z 33008KT M01/M02 A3029 RMK A01 T10091019  RH  094%=      5-min Rain = 0
KFVS 090740Z 33006KT M01/M02 A3029 RMK A01 T10101020  RH  094%=      5-min Rain = 0
KFVS 090745Z 33007KT M01/M02 A3028 RMK A01 T10111020  RH  094%=      5-min Rain = 0
KFVS 090750Z 33007KT M01/M02 A3028 RMK A01 T10101020  RH  094%=      5-min Rain = 0
KFVS 090755Z 33006KT M01/M02 A3028 RMK A01 T10101021  RH  094%=      5-min Rain = 0
KFVS 090800Z 33005KT M01/M02 A3028 RMK A01 T10111021  RH  094%=      5-min Rain = 0
KFVS 090805Z 34004KT M01/M02 A3028 RMK A01 T10121022  RH  093%=      5-min Rain = 0
KFVS 090810Z 34004KT M01/M02 A3028 RMK A01 T10141024  RH  094%=      5-min Rain = 0
KFVS 090815Z 33004KT M01/M02 A3028 RMK A01 T10141023  RH  095%=      5-min Rain = 0
KFVS 090820Z 33006KT M01/M02 A3028 RMK A01 T10141023  RH  094%=      5-min Rain = 0
KFVS 090825Z 33006KT M01/M02 A3028 RMK A01 T10121022  RH  094%=      5-min Rain = 0
KFVS 090830Z 33006KT M01/M02 A3029 RMK A01 T10121023  RH  093%=      5-min Rain = 0
KFVS 090835Z 34005KT M01/M02 A3029 RMK A01 T10121024  RH  093%=      5-min Rain = 0
KFVS 090840Z 33006KT M01/M03 A3029 RMK A01 T10141025  RH  093%=      5-min Rain = 0
KFVS 090845Z 33006KT M02/M03 A3029 RMK A01 T10151025  RH  093%=      5-min Rain = 0
KFVS 090850Z 33006KT M02/M03 A3029 RMK A01 T10151026  RH  093%=      5-min Rain = 0
KFVS 090855Z 32006KT M02/M03 A3029 RMK A01 T10151026  RH  093%=      5-min Rain = 0
KFVS 090900Z 32005KT M02/M03 A3029 RMK A01 T10151025  RH  093%=      5-min Rain = 0
KFVS 090905Z 32005KT M01/M03 A3029 RMK A01 T10141025  RH  093%=      5-min Rain = 0
KFVS 090910Z 33006KT M02/M03 A3028 RMK A01 T10151026  RH  093%=      5-min Rain = 0
KFVS 090915Z 33006KT M02/M03 A3028 RMK A01 T10171028  RH  093%=      5-min Rain = 0
KFVS 090920Z 34006KT M02/M03 A3028 RMK A01 T10181029  RH  093%=      5-min Rain = 0
KFVS 090925Z 34005KT M02/M03 A3028 RMK A01 T10181028  RH  094%=      5-min Rain = 0
KFVS 090930Z 34004KT M02/M03 A3029 RMK A01 T10181027  RH  094%=      5-min Rain = 0
KFVS 090935Z 35004KT M02/M03 A3029 RMK A01 T10171026  RH  094%=      5-min Rain = 0
KFVS 090940Z 35005KT M02/M03 A3029 RMK A01 T10181027  RH  094%=      5-min Rain = 0
KFVS 090945Z 35004KT M02/M03 A3029 RMK A01 T10191028  RH  094%=      5-min Rain = 0
KFVS 090950Z 36004KT M02/M03 A3029 RMK A01 T10191028  RH  094%=      5-min Rain = 0
KFVS 090955Z 00004KT M02/M03 A3029 RMK A01 T10201028  RH  094%=      5-min Rain = 0
KFVS 091000Z 01004KT M02/M03 A3029 RMK A01 T10191027  RH  095%=      5-min Rain = 0
KFVS 091005Z 01004KT M02/M03 A3029 RMK A01 T10181027  RH  094%=      5-min Rain = 0
KFVS 091010Z 01004KT M02/M03 A3029 RMK A01 T10201029  RH  094%=      5-min Rain = 0
KFVS 091015Z 01004KT M02/M03 A3029 RMK A01 T10221031  RH  094%=      5-min Rain = 0
KFVS 091020Z 01004KT M02/M03 A3029 RMK A01 T10231031  RH  094%=      5-min Rain = 0
KFVS 091025Z 00004KT M02/M03 A3029 RMK A01 T10231031  RH  095%=      5-min Rain = 0
KFVS 091030Z 00004KT M02/M03 A3029 RMK A01 T10241033  RH  094%=      5-min Rain = 0
KFVS 091035Z 00004KT M02/M03 A3029 RMK A01 T10231031  RH  095%=      5-min Rain = 0
KFVS 091040Z 00004KT M02/M03 A3029 RMK A01 T10241032  RH  095%=      5-min Rain = 0
KFVS 091045Z 00005KT M02/M03 A3029 RMK A01 T10241032  RH  095%=      5-min Rain = 0
KFVS 091050Z 01006KT M02/M03 A3029 RMK A01 T10231031  RH  095%=      5-min Rain = 0
KFVS 091055Z 01006KT M02/M03 A303 RMK A01 T10191027  RH  095%=      5-min Rain = 0
KFVS 091100Z 01006KT M02/M03 A3029 RMK A01 T10181028  RH  094%=      5-min Rain = 0
KFVS 091105Z 01006KT M02/M03 A303 RMK A01 T10191029  RH  094%=      5-min Rain = 0
KFVS 091110Z 01006KT M02/M03 A303 RMK A01 T10201030  RH  094%=      5-min Rain = 0
KFVS 091115Z 01006KT M02/M03 A303 RMK A01 T10201030  RH  094%=      5-min Rain = 0
KFVS 091120Z 00006KT M02/M03 A303 RMK A01 T10201031  RH  093%=      5-min Rain = 0
KFVS 091125Z 01005KT M02/M03 A303 RMK A01 T10201030  RH  093%=      5-min Rain = 0
KFVS 091130Z 00007KT M02/M03 A303 RMK A01 T10191031  RH  092%=      5-min Rain = 0
KFVS 091135Z 00007KT M02/M03 A303 RMK A01 T10191031  RH  092%=      5-min Rain = 0
KFVS 091140Z 36006KT M02/M03 A303 RMK A01 T10211033  RH  092%=      5-min Rain = 0
KFVS 091145Z 36005KT M02/M03 A303 RMK A01 T10231034  RH  093%=      5-min Rain = 0
KFVS 091150Z 36005KT M03/M04 A3031 RMK A01 T10251036  RH  093%=      5-min Rain = 0
KFVS 091155Z 35005KT M03/M04 A3031 RMK A01 T10261037  RH  093%=      5-min Rain = 0
KFVS 091200Z 35006KT M03/M04 A3031 RMK A01 T10271036  RH  094%=      5-min Rain = 0
KFVS 091205Z 35006KT M03/M04 A3031 RMK A01 T10281037  RH  094%=      5-min Rain = 0
KFVS 091210Z 35005KT M03/M04 A3031 RMK A01 T10281037  RH  094%=      5-min Rain = 0
KFVS 091215Z 35005KT M03/M04 A3031 RMK A01 T10301038  RH  094%=      5-min Rain = 0
KFVS 091220Z 36005KT M03/M04 A3032 RMK A01 T10321041  RH  094%=      5-min Rain = 0
KFVS 091225Z 36004KT M03/M04 A3032 RMK A01 T10331041  RH  094%=      5-min Rain = 0
KFVS 091230Z 00004KT M03/M04 A3032 RMK A01 T10331041  RH  095%=      5-min Rain = 0
KFVS 091235Z 01005KT M03/M04 A3032 RMK A01 T10341041  RH  095%=      5-min Rain = 0
KFVS 091240Z 01004KT M04/M04 A3033 RMK A01 T10351043  RH  095%=      5-min Rain = 0
KFVS 091245Z 01005KT M04/M04 A3033 RMK A01 T10351043  RH  095%=      5-min Rain = 0
KFVS 091250Z 01005KT M04/M04 A3033 RMK A01 T10351043  RH  095%=      5-min Rain = 0
KFVS 091255Z 36006KT M04/M04 A3033 RMK A01 T10351042  RH  095%=      5-min Rain = 0
KFVS 091300Z 00005KT M04/M04 A3033 RMK A01 T10351042  RH  095%=      5-min Rain = 0
KFVS 091305Z 01004KT M03/M04 A3033 RMK A01 T10341042  RH  095%=      5-min Rain = 0
KFVS 091310Z 02004KT M03/M04 A3033 RMK A01 T10341042  RH  095%=      5-min Rain = 0
KFVS 091315Z 01005KT M03/M04 A3033 RMK A01 T10331041  RH  094%=      5-min Rain = 0
KFVS 091320Z 02005KT M03/M04 A3034 RMK A01 T10331042  RH  094%=      5-min Rain = 0
KFVS 091325Z 02006KT M04/M04 A3034 RMK A01 T10351044  RH  094%=      5-min Rain = 0
KFVS 091330Z 02006KT M04/M04 A3034 RMK A01 T10351044  RH  094%=      5-min Rain = 0
KFVS 091335Z 01006KT M03/M04 A3034 RMK A01 T10331042  RH  094%=      5-min Rain = 0
KFVS 091340Z 01006KT M03/M04 A3034 RMK A01 T10331042  RH  093%=      5-min Rain = 0
KFVS 091345Z 00006KT M03/M04 A3034 RMK A01 T10321041  RH  093%=      5-min Rain = 0
KFVS 091350Z 00007KT M03/M04 A3034 RMK A01 T10311041  RH  093%=      5-min Rain = 0
KFVS 091355Z 00006KT M03/M04 A3034 RMK A01 T10301041  RH  093%=      5-min Rain = 0
KFVS 091400Z 00006KT M03/M04 A3035 RMK A01 T10291040  RH  092%=      5-min Rain = 0
KFVS 091405Z 00005KT M03/M04 A3035 RMK A01 T10281040  RH  092%=      5-min Rain = 0
KFVS 091410Z 00005KT M03/M04 A3035 RMK A01 T10271039  RH  092%=      5-min Rain = 0
KFVS 091415Z 00005KT M03/M04 A3035 RMK A01 T10251038  RH  092%=      5-min Rain = 0
KFVS 091420Z 00005KT M02/M04 A3035 RMK A01 T10241037  RH  092%=      5-min Rain = 0
KFVS 091425Z 36005KT M02/M04 A3035 RMK A01 T10231036  RH  091%=      5-min Rain = 0
KFVS 091430Z 36005KT M02/M04 A3036 RMK A01 T10221036  RH  091%=      5-min Rain = 0
KFVS 091435Z 36005KT M02/M04 A3036 RMK A01 T10221035  RH  091%=      5-min Rain = 0
KFVS 091440Z 36005KT M02/M03 A3036 RMK A01 T10211034  RH  091%=      5-min Rain = 0
KFVS 091445Z 35006KT M02/M03 A3037 RMK A01 T10201033  RH  091%=      5-min Rain = 0
KFVS 091450Z 35006KT M02/M03 A3037 RMK A01 T10191033  RH  091%=      5-min Rain = 0
KFVS 091455Z 35006KT M02/M03 A3037 RMK A01 T10191034  RH  090%=      5-min Rain = 0
KFVS 091500Z 35006KT M02/M03 A3037 RMK A01 T10181033  RH  090%=      5-min Rain = 0
KFVS 091505Z 36007KT M02/M03 A3037 RMK A01 T10171032  RH  090%=      5-min Rain = 0
KFVS 091510Z 35006KT M02/M03 A3038 RMK A01 T10171032  RH  090%=      5-min Rain = 0
KFVS 091515Z 35006KT M01/M03 A3038 RMK A01 T10141031  RH  089%=      5-min Rain = 0
KFVS 091520Z 35005KT M01/M03 A3038 RMK A01 T10131031  RH  088%=      5-min Rain = 0
KFVS 091525Z 35005KT M01/M03 A3038 RMK A01 T10121031  RH  087%=      5-min Rain = 0
KFVS 091530Z 36005KT M01/M03 A3038 RMK A01 T10111030  RH  087%=      5-min Rain = 0
KFVS 091535Z 36005KT M01/M03 A3038 RMK A01 T10101030  RH  087%=      5-min Rain = 0
KFVS 091540Z 35005KT M01/M03 A3038 RMK A01 T10091029  RH  087%=      5-min Rain = 0
KFVS 091545Z 35005KT M01/M03 A3038 RMK A01 T10081029  RH  086%=      5-min Rain = 0
KFVS 091550Z 35005KT M01/M03 A3039 RMK A01 T10071029  RH  085%=      5-min Rain = 0
KFVS 091555Z 35006KT M01/M03 A3039 RMK A01 T10061032  RH  083%=      5-min Rain = 0
KFVS 091600Z 35006KT M01/M04 A3039 RMK A01 T10051038  RH  078%=      5-min Rain = 0
KFVS 091605Z 34005KT M00/M04 A3039 RMK A01 T10031043  RH  075%=      5-min Rain = 0
KFVS 091610Z 34005KT M00/M05 A304 RMK A01 T10011047  RH  072%=      5-min Rain = 0
KFVS 091615Z 35004KT 00/05 A3039 RMK A01 T00000-51  RH  069%=      5-min Rain = 0.01
KFVS 091620Z 35004KT 00/M05 A304 RMK A01 T00031048  RH  069%=      5-min Rain = 0
KFVS 091625Z 35003KT 01/M05 A304 RMK A01 T00061048  RH  067%=      5-min Rain = 0
KFVS 091630Z 36005KT 01/M05 A304 RMK A01 T00081053  RH  064%=      5-min Rain = 0
KFVS 091635Z 36006KT 01/M05 A304 RMK A01 T00091049  RH  065%=      5-min Rain = 0
KFVS 091640Z 36006KT 01/M05 A304 RMK A01 T00111049  RH  065%=      5-min Rain = 0
KFVS 091645Z 35006KT 01/M05 A304 RMK A01 T00131052  RH  063%=      5-min Rain = 0
KFVS 091650Z 35007KT 01/M06 A304 RMK A01 T00141057  RH  059%=      5-min Rain = 0
KFVS 091655Z 35007KT 02/M06 A304 RMK A01 T00161055  RH  059%=      5-min Rain = 0
KFVS 091700Z 35007KT 02/M05 A304 RMK A01 T00181054  RH  059%=      5-min Rain = 0
KFVS 091705Z 35007KT 02/M05 A3039 RMK A01 T00191051  RH  060%=      5-min Rain = 0
KFVS 091710Z 35007KT 02/M05 A3039 RMK A01 T00201050  RH  060%=      5-min Rain = 0
KFVS 091715Z 36006KT 02/M05 A3039 RMK A01 T00201050  RH  060%=      5-min Rain = 0
KFVS 091720Z 35006KT 02/M04 A3039 RMK A01 T00211041  RH  064%=      5-min Rain = 0
KFVS 091725Z 35006KT 02/M04 A3039 RMK A01 T00241038  RH  064%=      5-min Rain = 0
KFVS 091730Z 35006KT 03/M05 A3039 RMK A01 T00251045  RH  060%=      5-min Rain = 0
KFVS 091735Z 35006KT 03/M04 A3039 RMK A01 T00271044  RH  060%=      5-min Rain = 0
KFVS 091740Z 35005KT 03/M05 A3038 RMK A01 T00281047  RH  058%=      5-min Rain = 0
KFVS 091745Z 34005KT 03/M04 A3038 RMK A01 T00291037  RH  062%=      5-min Rain = 0
KFVS 091750Z 35006KT 03/M05 A3038 RMK A01 T00311047  RH  057%=      5-min Rain = 0
KFVS 091755Z 35006KT 03/M04 A3038 RMK A01 T00321044  RH  058%=      5-min Rain = 0
KFVS 091800Z 33005KT 03/M05 A3038 RMK A01 T00321045  RH  057%=      5-min Rain = 0
KFVS 091805Z 35006KT 04/M05 A3038 RMK A01 T00351045  RH  056%=      5-min Rain = 0
KFVS 091810Z 34006KT 04/M04 A3038 RMK A01 T00371041  RH  057%=      5-min Rain = 0
KFVS 091815Z 34007KT 04/M04 A3038 RMK A01 T00391038  RH  057%=      5-min Rain = 0
KFVS 091820Z 35007KT 04/M04 A3037 RMK A01 T00401039  RH  057%=      5-min Rain = 0
KFVS 091825Z 34007KT 04/M04 A3037 RMK A01 T00411037  RH  057%=      5-min Rain = 0
KFVS 091830Z 35008KT 04/M04 A3037 RMK A01 T00411037  RH  057%=      5-min Rain = 0
KFVS 091835Z 35008KT 04/M03 A3036 RMK A01 T00441031  RH  059%=      5-min Rain = 0
KFVS 091840Z 35007KT 04/M04 A3036 RMK A01 T00441036  RH  056%=      5-min Rain = 0
KFVS 091845Z 00008KT 05/M03 A3036 RMK A01 T00461031  RH  058%=      5-min Rain = 0
KFVS 091850Z 35007KT 05/M03 A3036 RMK A01 T00461030  RH  058%=      5-min Rain = 0
KFVS 091855Z 00008KT 05/M03 A3035 RMK A01 T00471030  RH  058%=      5-min Rain = 0
KFVS 091900Z 01007KT 05/M04 A3035 RMK A01 T00451036  RH  056%=      5-min Rain = 0
KFVS 091905Z 03004KT 05/M04 A3035 RMK A01 T00461040  RH  054%=      5-min Rain = 0
KFVS 091910Z 00006KT 05/M03 A3035 RMK A01 T00491034  RH  055%=      5-min Rain = 0
KFVS 091915Z 01006KT 05/M04 A3035 RMK A01 T00481044  RH  052%=      5-min Rain = 0
KFVS 091920Z 35004KT 05/M04 A3034 RMK A01 T00491041  RH  052%=      5-min Rain = 0
KFVS 091925Z 35006KT 05/M05 A3034 RMK A01 T00501047  RH  050%=      5-min Rain = 0
KFVS 091930Z 35005KT 05/M04 A3034 RMK A01 T00521042  RH  051%=      5-min Rain = 0
KFVS 091935Z 35006KT 05/M04 A3034 RMK A01 T00521036  RH  053%=      5-min Rain = 0
KFVS 091940Z 34004KT 05/M04 A3034 RMK A01 T00521041  RH  051%=      5-min Rain = 0
KFVS 091945Z 00004KT 05/M04 A3034 RMK A01 T00531038  RH  052%=      5-min Rain = 0
KFVS 091950Z 35005KT 05/M04 A3034 RMK A01 T00541040  RH  051%=      5-min Rain = 0
KFVS 091955Z 34004KT 06/M04 A3034 RMK A01 T00551037  RH  052%=      5-min Rain = 0
KFVS 092000Z 35006KT 06/M04 A3034 RMK A01 T00561035  RH  052%=      5-min Rain = 0
KFVS 092005Z 33006KT 06/M03 A3034 RMK A01 T00581028  RH  054%=      5-min Rain = 0
KFVS 092010Z 32003KT 06/M04 A3034 RMK A01 T00581036  RH  051%=      5-min Rain = 0
KFVS 092015Z 33005KT 06/M03 A3033 RMK A01 T00601030  RH  053%=      5-min Rain = 0
KFVS 092020Z 33004KT 06/M03 A3033 RMK A01 T00591032  RH  052%=      5-min Rain = 0
KFVS 092025Z 32003KT 06/M04 A3033 RMK A01 T00591039  RH  050%=      5-min Rain = 0
KFVS 092030Z 34004KT 06/M03 A3033 RMK A01 T00611030  RH  052%=      5-min Rain = 0
KFVS 092035Z 32004KT 06/M03 A3033 RMK A01 T00621033  RH  051%=      5-min Rain = 0
KFVS 092040Z 33004KT 06/M04 A3033 RMK A01 T00621037  RH  049%=      5-min Rain = 0
KFVS 092045Z 33006KT 06/M03 A3033 RMK A01 T00631033  RH  051%=      5-min Rain = 0
KFVS 092050Z 31005KT 06/M03 A3033 RMK A01 T00631034  RH  050%=      5-min Rain = 0
KFVS 092055Z 34004KT 06/M03 A3033 RMK A01 T00641034  RH  050%=      5-min Rain = 0
KFVS 092100Z 33005KT 06/M03 A3032 RMK A01 T00641034  RH  050%=      5-min Rain = 0
KFVS 092105Z 33005KT 06/M04 A3032 RMK A01 T00641038  RH  048%=      5-min Rain = 0
KFVS 092110Z 34005KT 06/M03 A3032 RMK A01 T00641034  RH  049%=      5-min Rain = 0
KFVS 092115Z 35005KT 07/M03 A3032 RMK A01 T00651033  RH  050%=      5-min Rain = 0
KFVS 092120Z 35006KT 07/M03 A3032 RMK A01 T00661028  RH  051%=      5-min Rain = 0
KFVS 092125Z 35006KT 07/M03 A3032 RMK A01 T00651029  RH  051%=      5-min Rain = 0
KFVS 092130Z 34005KT 07/M03 A3032 RMK A01 T00661027  RH  052%=      5-min Rain = 0
KFVS 092135Z 36007KT 07/M02 A3032 RMK A01 T00671023  RH  053%=      5-min Rain = 0
KFVS 092140Z 36007KT 07/M03 A3032 RMK A01 T00661025  RH  053%=      5-min Rain = 0
KFVS 092145Z 36007KT 07/M03 A3032 RMK A01 T00661027  RH  052%=      5-min Rain = 0
KFVS 092150Z 35006KT 07/M03 A3032 RMK A01 T00661026  RH  052%=      5-min Rain = 0
KFVS 092155Z 34006KT 07/M03 A3032 RMK A01 T00671025  RH  052%=      5-min Rain = 0
KFVS 092200Z 35006KT 07/M02 A3032 RMK A01 T00681023  RH  053%=      5-min Rain = 0
KFVS 092205Z 35006KT 07/M03 A3033 RMK A01 T00671025  RH  052%=      5-min Rain = 0
KFVS 092210Z 33005KT 07/M02 A3033 RMK A01 T00681022  RH  053%=      5-min Rain = 0
KFVS 092215Z 35006KT 07/M03 A3033 RMK A01 T00671028  RH  051%=      5-min Rain = 0
KFVS 092220Z 34005KT 07/M03 A3033 RMK A01 T00661029  RH  051%=      5-min Rain = 0
KFVS 092225Z 35006KT 07/M03 A3033 RMK A01 T00661028  RH  051%=      5-min Rain = 0
KFVS 092230Z 35006KT 07/M02 A3033 RMK A01 T00671019  RH  055%=      5-min Rain = 0
KFVS 092235Z 33007KT 07/M02 A3033 RMK A01 T00661021  RH  054%=      5-min Rain = 0
KFVS 092240Z 34007KT 07/M02 A3033 RMK A01 T00651022  RH  054%=      5-min Rain = 0
KFVS 092245Z 34006KT 06/M03 A3033 RMK A01 T00641026  RH  053%=      5-min Rain = 0
KFVS 092250Z 35007KT 06/M02 A3033 RMK A01 T00631024  RH  054%=      5-min Rain = 0
KFVS 092255Z 35008KT 06/M02 A3033 RMK A01 T00621021  RH  056%=      5-min Rain = 0
KFVS 092300Z 35006KT 06/M02 A3033 RMK A01 T00601017  RH  058%=      5-min Rain = 0
KFVS 092305Z 00007KT 06/M02 A3033 RMK A01 T00591023  RH  056%=      5-min Rain = 0
KFVS 092310Z 01006KT 06/M02 A3033 RMK A01 T00581024  RH  056%=      5-min Rain = 0
KFVS 092315Z 00007KT 06/M02 A3034 RMK A01 T00561021  RH  058%=      5-min Rain = 0
KFVS 092320Z 36007KT 05/M02 A3034 RMK A01 T00531019  RH  060%=      5-min Rain = 0
KFVS 092325Z 36008KT 05/M02 A3034 RMK A01 T00501015  RH  064%=      5-min Rain = 0
KFVS 092330Z 36007KT 05/M02 A3034 RMK A01 T00481015  RH  064%=      5-min Rain = 0
KFVS 092335Z 36007KT 04/M01 A3033 RMK A01 T00441012  RH  067%=      5-min Rain = 0
KFVS 092340Z 00006KT 04/M01 A3033 RMK A01 T00401012  RH  069%=      5-min Rain = 0
KFVS 092345Z 36005KT 04/M01 A3034 RMK A01 T00361013  RH  071%=      5-min Rain = 0
KFVS 092350Z 35006KT 03/M01 A3034 RMK A01 T00331013  RH  072%=      5-min Rain = 0
KFVS 092355Z 36006KT 03/M02 A3034 RMK A01 T00311017  RH  072%=      5-min Rain = 0
KFVS 100000Z 36006KT 03/M02 A3034 RMK A01 T00321017  RH  071%=      5-min Rain = 0
KFVS 100005Z 36006KT 03/M02 A3034 RMK A01 T00291019  RH  071%=      5-min Rain = 0
KFVS 100010Z 36006KT 03/M02 A3034 RMK A01 T00281019  RH  072%=      5-min Rain = 0
KFVS 100015Z 36006KT 03/M02 A3035 RMK A01 T00271019  RH  072%=      5-min Rain = 0
KFVS 100020Z 36006KT 03/M02 A3035 RMK A01 T00261019  RH  073%=      5-min Rain = 0
KFVS 100025Z 00006KT 02/M02 A3035 RMK A01 T00231017  RH  075%=      5-min Rain = 0
KFVS 100030Z 00006KT 02/M02 A3035 RMK A01 T00231020  RH  074%=      5-min Rain = 0
KFVS 100035Z 36006KT 02/M02 A3035 RMK A01 T00241021  RH  073%=      5-min Rain = 0
KFVS 100040Z 00006KT 02/M02 A3035 RMK A01 T00241021  RH  073%=      5-min Rain = 0
KFVS 100045Z 36007KT 02/M02 A3035 RMK A01 T00231021  RH  073%=      5-min Rain = 0
KFVS 100050Z 36007KT 02/M02 A3036 RMK A01 T00211023  RH  073%=      5-min Rain = 0
KFVS 100055Z 36006KT 02/M02 A3036 RMK A01 T00191022  RH  075%=      5-min Rain = 0
KFVS 100100Z 36005KT 02/M02 A3036 RMK A01 T00171023  RH  075%=      5-min Rain = 0
KFVS 100105Z 00005KT 02/M03 A3035 RMK A01 T00181025  RH  074%=      5-min Rain = 0
KFVS 100110Z 00004KT 02/M03 A3035 RMK A01 T00181029  RH  071%=      5-min Rain = 0
KFVS 100115Z 36005KT 02/M03 A3035 RMK A01 T00181030  RH  071%=      5-min Rain = 0
KFVS 100120Z 35004KT 02/M03 A3035 RMK A01 T00171030  RH  071%=      5-min Rain = 0
KFVS 100125Z 35003KT 01/M03 A3035 RMK A01 T00141031  RH  073%=      5-min Rain = 0
KFVS 100130Z 35003KT 01/M03 A3035 RMK A01 T00131030  RH  074%=      5-min Rain = 0
KFVS 100135Z 35003KT 01/M03 A3035 RMK A01 T00131028  RH  075%=      5-min Rain = 0
KFVS 100140Z 35003KT 01/M03 A3036 RMK A01 T00131028  RH  074%=      5-min Rain = 0
KFVS 100145Z 35003KT 01/M03 A3035 RMK A01 T00131029  RH  074%=      5-min Rain = 0
KFVS 100150Z 35002KT 01/M03 A3035 RMK A01 T00131029  RH  074%=      5-min Rain = 0
KFVS 100155Z 35002KT 01/M03 A3036 RMK A01 T00131029  RH  074%=      5-min Rain = 0
KFVS 100200Z 35003KT 01/M03 A3036 RMK A01 T00101029  RH  076%=      5-min Rain = 0
KFVS 100205Z 33002KT 01/M03 A3036 RMK A01 T00051030  RH  078%=      5-min Rain = 0
KFVS 100210Z 33002KT 00/M03 A3036 RMK A01 T00041028  RH  079%=      5-min Rain = 0
KFVS 100215Z 34003KT 00/M03 A3036 RMK A01 T00021029  RH  080%=      5-min Rain = 0
KFVS 100220Z 35004KT M00/M04 A3036 RMK A01 T10041035  RH  080%=      5-min Rain = 0
KFVS 100225Z 35005KT M00/M03 A3037 RMK A01 T10021029  RH  083%=      5-min Rain = 0
KFVS 100230Z 34006KT M00/M03 A3037 RMK A01 T10011027  RH  083%=      5-min Rain = 0
KFVS 100235Z 34006KT M00/M03 A3037 RMK A01 T10031027  RH  085%=      5-min Rain = 0
KFVS 100240Z 34005KT M00/M03 A3037 RMK A01 T10031026  RH  085%=      5-min Rain = 0
KFVS 100245Z 34005KT M00/M03 A3037 RMK A01 T10031027  RH  085%=      5-min Rain = 0
KFVS 100250Z 33004KT M00/M03 A3037 RMK A01 T10021026  RH  084%=      5-min Rain = 0
KFVS 100255Z 33003KT 00/M03 A3037 RMK A01 T00011028  RH  082%=      5-min Rain = 0
KFVS 100300Z 35005KT 01/M03 A3037 RMK A01 T00051030  RH  078%=      5-min Rain = 0
KFVS 100305Z 35006KT 00/M03 A3037 RMK A01 T00011029  RH  081%=      5-min Rain = 0
KFVS 100310Z 35005KT M00/M03 A3037 RMK A01 T10021026  RH  084%=      5-min Rain = 0
KFVS 100315Z 36005KT M00/M03 A3037 RMK A01 T10021026  RH  084%=      5-min Rain = 0
KFVS 100320Z 36006KT 00/03 A3038 RMK A01 T00-00-28  RH  082%=      5-min Rain = 0
KFVS 100325Z 34006KT M00/M03 A3038 RMK A01 T10031028  RH  084%=      5-min Rain = 0
KFVS 100330Z 35006KT M01/M03 A3038 RMK A01 T10051026  RH  087%=      5-min Rain = 0
KFVS 100335Z 35005KT M01/M03 A3038 RMK A01 T10061026  RH  087%=      5-min Rain = 0
KFVS 100340Z 35005KT M01/M03 A3038 RMK A01 T10051025  RH  087%=      5-min Rain = 0
KFVS 100345Z 35005KT M00/M03 A3037 RMK A01 T10041026  RH  086%=      5-min Rain = 0
KFVS 100350Z 35004KT M00/M03 A3037 RMK A01 T10041027  RH  085%=      5-min Rain = 0
KFVS 100355Z 35004KT M00/M03 A3037 RMK A01 T10041028  RH  085%=      5-min Rain = 0
KFVS 100400Z 35005KT M00/M03 A3037 RMK A01 T10041028  RH  084%=      5-min Rain = 0
KFVS 100405Z 35004KT M00/M03 A3037 RMK A01 T10041029  RH  084%=      5-min Rain = 0
KFVS 100410Z 35004KT M01/M03 A3037 RMK A01 T10051030  RH  084%=      5-min Rain = 0
KFVS 100415Z 36003KT M01/M03 A3037 RMK A01 T10071030  RH  085%=      5-min Rain = 0
KFVS 100420Z 36002KT M01/M03 A3037 RMK A01 T10071030  RH  085%=      5-min Rain = 0
KFVS 100425Z 36002KT M01/M03 A3038 RMK A01 T10071031  RH  085%=      5-min Rain = 0
KFVS 100430Z 34002KT M00/M03 A3038 RMK A01 T10021029  RH  083%=      5-min Rain = 0
KFVS 100435Z 32003KT 00/M03 A3038 RMK A01 T00021031  RH  079%=      5-min Rain = 0
KFVS 100440Z 31003KT 00/03 A3038 RMK A01 T00000-31  RH  080%=      5-min Rain = 0
KFVS 100445Z 30003KT M00/M03 A3037 RMK A01 T10011030  RH  081%=      5-min Rain = 0
KFVS 100450Z 31003KT M00/M03 A3037 RMK A01 T10021029  RH  082%=      5-min Rain = 0
KFVS 100455Z 30004KT M00/M03 A3037 RMK A01 T10031028  RH  084%=      5-min Rain = 0
KFVS 100500Z 30004KT M01/M03 A3037 RMK A01 T10061028  RH  086%=      5-min Rain = 0
KFVS 100505Z 31005KT M01/M03 A3037 RMK A01 T10101029  RH  087%=      5-min Rain = 0
KFVS 100510Z 32006KT M01/M03 A3037 RMK A01 T10111029  RH  088%=      5-min Rain = 0
KFVS 100515Z 31006KT M01/M03 A3037 RMK A01 T10091029  RH  087%=      5-min Rain = 0
KFVS 100520Z 32005KT M01/M03 A3038 RMK A01 T10061033  RH  082%=      5-min Rain = 0
KFVS 100525Z 33006KT M01/M04 A3038 RMK A01 T10051035  RH  081%=      5-min Rain = 0
KFVS 100530Z 34007KT M00/M03 A3038 RMK A01 T10021034  RH  079%=      5-min Rain = 0
KFVS 100535Z 34007KT M00/M03 A3037 RMK A01 T10021031  RH  081%=      5-min Rain = 0
KFVS 100540Z 33007KT M00/M03 A3037 RMK A01 T10021030  RH  082%=      5-min Rain = 0
KFVS 100545Z 33007KT M00/M03 A3037 RMK A01 T10011030  RH  081%=      5-min Rain = 0
KFVS 100550Z 32005KT M00/M03 A3037 RMK A01 T10021030  RH  082%=      5-min Rain = 0
KFVS 100555Z 32005KT M01/M03 A3037 RMK A01 T10061031  RH  084%=      5-min Rain = 0

Page generated in 0.0276 seconds.